Time;durP1;ratioP1;P1;durP2;ratioP2;P2;SDS_P1;SDS_P2;PMS_P1;PMS_P2;Temp;Humidity;BMP_temperature;BMP_pressure;BME280_temperature;BME280_humidity;BME280_pressure;Samples;Min_cycle;Max_cycle;Signal;HPM_P1;HPM_P2
2023/11/23 00:00:10;;;;;;;21.17;5.40;;;;;;;-0.30;81.84;100858.91;6196768;28;20058;-72
2023/11/23 00:03:11;;;;;;;15.02;4.40;;;;;;;-0.46;81.32;100847.00;6149913;28;20059;-72
2023/11/23 00:06:14;;;;;;;13.63;4.80;;;;;;;-0.43;81.77;100837.59;6190019;28;20062;-73
2023/11/23 00:09:15;;;;;;;8.07;3.75;;;;;;;-0.54;81.77;100835.91;6193018;28;20050;-72
2023/11/23 00:12:18;;;;;;;8.93;3.58;;;;;;;-0.33;82.26;100845.22;6196518;28;20541;-72
2023/11/23 00:15:18;;;;;;;9.25;4.78;;;;;;;-0.65;81.97;100844.47;6175396;28;20479;-72
2023/11/23 00:18:19;;;;;;;7.65;4.57;;;;;;;-0.47;81.94;100856.41;6187702;28;20066;-72
2023/11/23 00:21:20;;;;;;;13.60;5.05;;;;;;;-0.37;82.37;100862.38;6197492;28;20054;-71
2023/11/23 00:24:21;;;;;;;6.00;3.83;;;;;;;-0.37;82.52;100866.63;6192263;28;20074;-72
2023/11/23 00:27:22;;;;;;;7.40;4.20;;;;;;;-0.33;81.75;100873.44;6195504;28;20058;-72
2023/11/23 00:30:25;;;;;;;6.47;4.15;;;;;;;-0.55;81.45;100870.94;6197095;28;20421;-75
2023/11/23 00:33:26;;;;;;;;;;;;;;;-0.65;81.84;100867.53;6201311;28;20050;-75
2023/11/23 00:36:27;;;;;;;12.13;4.70;;;;;;;-0.49;82.32;100859.84;6197097;28;20288;-72
2023/11/23 00:39:28;;;;;;;9.82;5.20;;;;;;;-0.33;82.50;100860.63;6202224;28;20466;-72
2023/11/23 00:42:29;;;;;;;8.88;5.72;;;;;;;-0.31;82.11;100857.22;6200131;28;20042;-72
2023/11/23 00:45:30;;;;;;;13.07;7.38;;;;;;;-0.27;82.00;100858.91;6202270;28;20052;-72
2023/11/23 00:48:31;;;;;;;12.48;5.68;;;;;;;-0.33;81.94;100855.50;6201487;28;20064;-72
2023/11/23 00:51:32;;;;;;;12.25;5.78;;;;;;;-0.29;81.51;100855.50;6201162;28;20050;-75
2023/11/23 00:54:37;;;;;;;9.25;5.35;;;;;;;-0.29;82.01;100857.19;6184975;28;20050;-75
2023/11/23 00:57:40;;;;;;;12.23;5.35;;;;;;;-0.27;81.87;100845.22;6188437;28;20050;-75
2023/11/23 01:00:43;;;;;;;9.63;4.93;;;;;;;-0.28;83.33;100853.78;6198579;28;20050;-75
2023/11/23 01:03:44;;;;;;;12.60;5.32;;;;;;;-0.34;83.00;100852.09;6178796;28;20058;-75
2023/11/23 01:06:46;;;;;;;9.05;5.13;;;;;;;-0.37;82.74;100848.66;6169133;28;20062;-75
2023/11/23 01:09:46;;;;;;;8.43;5.25;;;;;;;-0.48;81.89;100857.25;6175164;28;20050;-75
2023/11/23 01:12:48;;;;;;;9.10;5.07;;;;;;;-0.48;82.45;100862.38;6169011;28;20047;-72
2023/11/23 01:15:49;;;;;;;11.40;6.28;;;;;;;-0.32;82.76;100862.34;6174266;28;20055;-75
2023/11/23 01:18:50;;;;;;;12.55;4.88;;;;;;;-0.36;82.57;100861.50;6173119;28;20063;-75
2023/11/23 01:21:51;;;;;;;9.85;5.45;;;;;;;-0.59;82.14;100853.03;6170844;28;20478;-75
2023/11/23 01:24:52;;;;;;;11.30;4.85;;;;;;;-0.48;82.75;100843.56;6171188;28;20409;-75
2023/11/23 01:27:55;;;;;;;9.60;4.65;;;;;;;-0.41;82.64;100855.53;6167080;28;20113;-75
2023/11/23 01:30:56;;;;;;;9.10;4.80;;;;;;;-0.39;83.89;100860.63;6173403;28;20605;-75
2023/11/23 01:33:57;;;;;;;11.45;5.60;;;;;;;-0.42;83.58;100864.06;6171238;28;20046;-72
2023/11/23 01:36:58;;;;;;;13.30;6.50;;;;;;;-0.61;82.46;100851.31;6175274;28;20055;-72
2023/11/23 01:39:59;;;;;;;13.18;5.43;;;;;;;-0.46;82.57;100864.94;6184697;28;20102;-72
2023/11/23 01:43:11;;;;;;;14.73;6.43;;;;;;;-0.47;83.57;100873.50;6171931;28;20043;-72
2023/11/23 01:46:13;;;;;;;12.80;5.75;;;;;;;-0.43;83.00;100860.66;6174265;28;20066;-75
2023/11/23 01:49:16;;;;;;;10.15;6.78;;;;;;;-0.44;82.91;100858.09;6173287;28;20454;-72
2023/11/23 01:52:17;;;;;;;10.77;5.97;;;;;;;-0.45;83.18;100858.97;6174486;28;20117;-71
2023/11/23 01:55:19;;;;;;;13.80;6.25;;;;;;;-0.49;82.85;100858.13;6171599;28;20860;-76
2023/11/23 01:58:21;;;;;;;16.75;7.03;;;;;;;-0.50;83.67;100860.69;6163326;28;20108;-73
2023/11/23 02:01:22;;;;;;;14.52;6.63;;;;;;;-0.45;83.53;100853.84;6186361;28;20055;-76
2023/11/23 02:04:23;;;;;;;11.60;6.40;;;;;;;-0.48;83.63;100869.22;6170537;28;20051;-75
2023/11/23 02:07:28;;;;;;;14.60;6.63;;;;;;;-0.52;83.38;100880.34;6167594;28;20065;-75
2023/11/23 02:10:28;;;;;;;9.35;5.57;;;;;;;-0.57;84.00;100861.56;6181153;28;20058;-76
2023/11/23 02:13:30;;;;;;;13.15;6.18;;;;;;;-0.59;84.32;100868.41;6165320;28;20051;-73
2023/11/23 02:16:39;;;;;;;15.32;6.57;;;;;;;-0.68;84.15;100871.81;6173708;28;20055;-76
2023/11/23 02:19:40;;;;;;;21.75;7.32;;;;;;;-0.73;84.46;100869.28;6173680;28;20391;-72
2023/11/23 02:22:44;;;;;;;13.73;7.35;;;;;;;-0.72;83.30;100875.25;6190079;28;20466;-75
2023/11/23 02:25:45;;;;;;;11.00;6.13;;;;;;;-0.71;84.16;100874.41;6171961;28;20046;-72
2023/11/23 02:28:45;;;;;;;21.73;7.75;;;;;;;-0.70;84.04;100879.53;6172821;28;20047;-72
2023/11/23 02:31:49;;;;;;;13.50;7.07;;;;;;;-0.74;84.86;100869.25;6173490;28;20406;-75
2023/11/23 02:34:50;;;;;;;16.75;7.18;;;;;;;-0.82;85.33;100864.16;6161748;28;20074;-73
2023/11/23 02:37:51;;;;;;;16.45;7.13;;;;;;;-0.81;85.11;100853.06;6172376;28;20055;-73
2023/11/23 02:40:52;;;;;;;17.70;8.88;;;;;;;-0.80;85.06;100841.97;6174074;28;20058;-73
2023/11/23 02:43:53;;;;;;;14.80;7.93;;;;;;;-0.66;85.40;100844.47;6177291;28;20070;-75
2023/11/23 02:46:54;;;;;;;19.08;7.15;;;;;;;-0.54;85.71;100841.03;6173709;28;20141;-73
2023/11/23 02:49:54;;;;;;;13.90;6.65;;;;;;;-0.53;85.30;100832.50;6169119;28;20067;-76
2023/11/23 02:52:56;;;;;;;12.38;6.03;;;;;;;-0.52;85.81;100817.09;6174578;28;20384;-76
2023/11/23 02:55:56;;;;;;;12.07;6.20;;;;;;;-0.46;85.70;100813.66;6172917;28;20082;-73
2023/11/23 02:59:00;;;;;;;14.80;7.10;;;;;;;-0.50;86.67;100806.84;6167623;28;20106;-72
2023/11/23 03:02:01;;;;;;;11.98;7.03;;;;;;;-0.34;86.26;100823.03;6165865;28;20058;-75
2023/11/23 03:05:02;;;;;;;26.85;7.65;;;;;;;-0.24;86.70;100807.59;6176777;28;20051;-71
2023/11/23 03:08:03;;;;;;;13.88;7.88;;;;;;;-0.24;85.85;100794.75;6175120;28;20065;-72
2023/11/23 03:11:04;;;;;;;12.68;7.40;;;;;;;-0.23;85.21;100803.31;6175131;28;20061;-75
2023/11/23 03:14:08;;;;;;;14.50;6.78;;;;;;;-0.22;84.63;100807.59;6155128;28;20106;-76
2023/11/23 03:17:09;;;;;;;16.45;7.15;;;;;;;-0.15;84.83;100816.09;6158597;28;20042;-76
2023/11/23 03:20:10;;;;;;;13.23;6.65;;;;;;;-0.19;84.23;100824.66;6172025;28;20391;-73
2023/11/23 03:23:12;;;;;;;12.50;6.78;;;;;;;-0.17;84.30;100818.66;6174130;28;20109;-76
2023/11/23 03:26:13;;;;;;;13.10;7.03;;;;;;;-0.15;84.19;100824.63;6165207;28;20560;-72
2023/11/23 03:29:16;;;;;;;14.50;6.63;;;;;;;-0.11;83.98;100812.66;6158941;28;20105;-72
2023/11/23 03:32:17;;;;;;;7.45;5.07;;;;;;;0.01;83.34;100815.16;6173497;28;20163;-76
2023/11/23 03:35:18;;;;;;;11.15;5.68;;;;;;;0.13;83.83;100802.25;6164834;28;20565;-72
2023/11/23 03:38:19;;;;;;;8.50;5.82;;;;;;;0.23;83.33;100794.47;6165696;28;20079;-76
2023/11/23 03:41:23;;;;;;;14.02;5.97;;;;;;;0.29;82.93;100792.75;6150703;28;20059;-75
2023/11/23 03:44:24;;;;;;;9.20;4.88;;;;;;;0.37;82.46;100772.13;6170927;28;20416;-72
2023/11/23 03:47:25;;;;;;;21.80;8.95;;;;;;;0.35;82.17;100785.00;6158941;28;20063;-72
2023/11/23 03:50:26;;;;;;;36.45;14.63;;;;;;;0.40;82.02;100784.97;6182813;28;20080;-74
2023/11/23 03:53:27;;;;;;;25.02;12.05;;;;;;;0.34;81.66;100785.00;6165590;28;20406;-73
2023/11/23 03:56:28;;;;;;;18.85;8.90;;;;;;;0.47;81.21;100786.59;6172736;28;20438;-73
2023/11/23 03:59:31;;;;;;;9.63;5.72;;;;;;;0.39;81.17;100791.81;6188881;28;20055;-74
2023/11/23 04:02:34;;;;;;;10.40;5.68;;;;;;;0.23;81.55;100777.41;6173999;28;20429;-72
2023/11/23 04:05:37;;;;;;;8.63;5.10;;;;;;;0.13;81.89;100801.41;6173397;28;20502;-76
2023/11/23 04:08:39;;;;;;;9.75;5.40;;;;;;;0.27;82.17;100791.03;6177273;28;20082;-73
2023/11/23 04:11:40;;;;;;;7.72;4.80;;;;;;;0.26;82.24;100789.34;6161490;28;20051;-72
2023/11/23 04:14:41;;;;;;;7.03;4.03;;;;;;;0.39;81.32;100786.69;6175246;28;20047;-76
2023/11/23 04:17:43;;;;;;;12.27;5.78;;;;;;;0.43;81.35;100791.78;6178743;28;20090;-72
2023/11/23 04:20:44;;;;;;;10.80;5.40;;;;;;;0.34;81.59;100791.00;6178674;28;20105;-73
2023/11/23 04:23:44;;;;;;;11.15;5.78;;;;;;;0.39;81.79;100791.81;6177307;28;20047;-75
2023/11/23 04:26:45;;;;;;;14.43;5.97;;;;;;;0.43;81.88;100787.50;6185740;28;20138;-75
2023/11/23 04:29:47;;;;;;;7.85;4.60;;;;;;;0.43;81.44;100792.63;6154308;28;20142;-72
2023/11/23 04:32:48;;;;;;;7.15;4.90;;;;;;;0.45;81.71;100792.63;6179837;28;20058;-72
2023/11/23 04:35:49;;;;;;;8.35;4.82;;;;;;;0.48;81.65;100782.34;6177507;28;20055;-75
2023/11/23 04:38:50;;;;;;;10.32;5.95;;;;;;;0.52;81.72;100774.59;6163114;28;20062;-72
2023/11/23 04:41:51;;;;;;;9.20;5.25;;;;;;;0.62;82.13;100788.22;6168131;28;20135;-72
2023/11/23 04:44:52;;;;;;;14.45;8.00;;;;;;;0.64;81.62;100791.63;6168511;28;20495;-73
2023/11/23 04:47:53;;;;;;;12.85;6.55;;;;;;;0.65;82.04;100802.75;6163274;28;20073;-73
2023/11/23 04:50:54;;;;;;;8.35;5.28;;;;;;;0.64;82.67;100812.19;6167776;28;20418;-73
2023/11/23 04:53:56;;;;;;;11.10;6.07;;;;;;;0.75;82.14;100807.78;6209175;28;20137;-75
2023/11/23 04:56:57;;;;;;;10.13;5.30;;;;;;;0.45;81.58;100813.16;6177813;28;20492;-72
2023/11/23 04:59:58;;;;;;;9.45;6.18;;;;;;;0.42;81.79;100824.31;6206821;28;20054;-73
2023/11/23 05:02:59;;;;;;;9.70;5.30;;;;;;;0.48;81.21;100824.28;6189905;28;20433;-73
2023/11/23 05:06:01;;;;;;;10.60;6.03;;;;;;;0.59;81.33;100819.06;6200539;28;20050;-75
2023/11/23 05:09:02;;;;;;;8.63;5.17;;;;;;;0.60;81.57;100815.63;6200904;28;20486;-76
2023/11/23 05:12:04;;;;;;;10.65;6.20;;;;;;;0.65;81.42;100802.75;6195199;28;20050;-75
2023/11/23 05:15:08;;;;;;;9.80;5.82;;;;;;;0.54;81.91;100797.72;6199808;28;20050;-76
2023/11/23 05:18:09;;;;;;;10.02;5.55;;;;;;;0.59;82.93;100795.94;6199852;28;20062;-76
2023/11/23 05:21:12;;;;;;;12.00;5.88;;;;;;;0.41;82.21;100791.78;6200744;28;20065;-73
2023/11/23 05:24:14;;;;;;;9.27;5.25;;;;;;;0.37;82.06;100803.81;6200375;28;20054;-72
2023/11/23 05:27:15;;;;;;;9.85;5.07;;;;;;;0.35;82.20;100807.25;6200609;28;20409;-75
2023/11/23 05:30:17;;;;;;;11.25;5.35;;;;;;;0.32;82.60;100810.69;6199323;28;20101;-76
2023/11/23 05:33:18;;;;;;;8.38;4.93;;;;;;;0.01;83.20;100797.19;6199819;28;20068;-72
2023/11/23 05:36:19;;;;;;;10.73;5.75;;;;;;;0.19;82.98;100797.09;6200203;28;20486;-72
2023/11/23 05:39:23;;;;;;;10.05;6.43;;;;;;;0.13;82.43;100788.59;6200669;28;20063;-76
2023/11/23 05:42:24;;;;;;;13.10;5.38;;;;;;;0.13;83.07;100792.00;6200224;28;20413;-76
2023/11/23 05:45:25;;;;;;;9.93;5.40;;;;;;;0.29;82.62;100808.16;6199881;28;20050;-75
2023/11/23 05:48:26;;;;;;;8.60;5.57;;;;;;;0.11;82.61;100806.56;6200073;28;20062;-76
2023/11/23 05:51:28;;;;;;;13.77;6.68;;;;;;;0.05;84.39;100791.19;6199536;28;20050;-72
2023/11/23 05:54:31;;;;;;;12.23;5.75;;;;;;;0.18;84.24;100785.09;6197591;28;20046;-73
2023/11/23 05:57:32;;;;;;;11.40;5.30;;;;;;;0.22;83.53;100801.34;6197739;28;20141;-76
2023/11/23 06:00:35;;;;;;;12.05;6.63;;;;;;;0.19;84.53;100816.78;6199430;28;20090;-75
2023/11/23 06:03:37;;;;;;;12.98;6.47;;;;;;;0.19;84.13;100806.50;6199148;28;20409;-73
2023/11/23 06:06:38;;;;;;;10.45;5.95;;;;;;;0.16;84.57;100806.50;6198189;28;20054;-75
2023/11/23 06:09:39;;;;;;;8.98;5.10;;;;;;;0.14;84.46;100803.09;6198138;28;20436;-72
2023/11/23 06:12:45;;;;;;;11.38;5.30;;;;;;;0.32;84.33;100809.84;6198242;28;20046;-76
2023/11/23 06:15:46;;;;;;;15.52;6.53;;;;;;;0.36;85.02;100801.25;6199180;28;20054;-74
2023/11/23 06:18:47;;;;;;;11.25;6.60;;;;;;;0.16;85.09;100809.06;6199319;28;20046;-73
2023/11/23 06:21:49;;;;;;;12.02;6.35;;;;;;;0.18;85.28;100818.47;6199183;28;20046;-74
2023/11/23 06:24:50;;;;;;;10.85;5.43;;;;;;;0.25;84.91;100831.25;6198991;28;20129;-72
2023/11/23 06:27:51;;;;;;;9.93;6.38;;;;;;;0.36;84.95;100840.63;6197552;28;20061;-73
2023/11/23 06:30:52;;;;;;;13.63;6.13;;;;;;;0.45;85.41;100837.13;6197695;28;20053;-74
2023/11/23 06:33:53;;;;;;;9.65;5.10;;;;;;;0.59;84.96;100837.88;6197750;28;20046;-76
2023/11/23 06:36:54;;;;;;;8.52;5.35;;;;;;;0.46;85.35;100826.00;6198684;28;20054;-72
2023/11/23 06:39:55;;;;;;;9.60;5.30;;;;;;;0.24;84.84;100832.97;6197647;28;20050;-73
2023/11/23 06:42:56;;;;;;;13.18;6.35;;;;;;;0.36;84.94;100830.34;6197358;28;20047;-73
2023/11/23 06:45:57;;;;;;;14.38;4.95;;;;;;;0.38;85.79;100828.63;6197340;28;20061;-73
2023/11/23 06:48:58;;;;;;;14.05;6.57;;;;;;;0.46;85.16;100823.44;6198377;28;20065;-73
2023/11/23 06:51:59;;;;;;;9.18;5.20;;;;;;;0.45;85.27;100826.84;6198307;28;20047;-74
2023/11/23 06:55:01;;;;;;;17.08;5.68;;;;;;;0.32;85.43;100827.81;6197107;28;20061;-75
2023/11/23 06:58:02;;;;;;;12.67;6.33;;;;;;;0.41;85.33;100832.88;6198246;28;20054;-72
2023/11/23 07:01:03;;;;;;;8.00;5.30;;;;;;;0.47;85.60;100820.00;6185538;28;20061;-75
2023/11/23 07:04:04;;;;;;;7.85;5.50;;;;;;;0.58;85.26;100812.22;6173637;28;20046;-76
2023/11/23 07:07:06;;;;;;;10.40;5.22;;;;;;;0.49;85.44;100800.28;6174068;28;20054;-75
2023/11/23 07:10:07;;;;;;;12.98;5.80;;;;;;;0.40;85.18;100787.53;6173808;28;20066;-73
2023/11/23 07:13:12;;;;;;;9.82;5.55;;;;;;;0.46;84.93;100790.06;6172753;28;20050;-76
2023/11/23 07:16:18;;;;;;;10.10;3.95;;;;;;;0.32;85.79;100790.16;6173522;28;20137;-76
2023/11/23 07:19:19;;;;;;;11.45;5.35;;;;;;;0.45;85.92;100767.78;6172465;28;20050;-73
2023/11/23 07:22:20;;;;;;;11.55;4.57;;;;;;;0.62;85.42;100754.84;6172380;28;20544;-76
2023/11/23 07:25:21;;;;;;;7.07;4.03;;;;;;;0.64;84.87;100749.66;6173816;28;20058;-72
2023/11/23 07:28:24;;;;;;;9.45;5.40;;;;;;;0.71;84.33;100756.47;6172477;28;20050;-72
2023/11/23 07:31:25;;;;;;;6.32;4.28;;;;;;;0.45;83.90;100762.66;6172249;28;20089;-73
2023/11/23 07:34:28;;;;;;;8.80;4.25;;;;;;;0.40;84.47;100760.13;6173597;28;20494;-72
2023/11/23 07:37:33;;;;;;;10.23;5.32;;;;;;;0.75;83.76;100758.13;6173413;28;20133;-74
2023/11/23 07:40:37;;;;;;;11.32;4.40;;;;;;;0.51;82.93;100762.59;6174481;28;20466;-72
2023/11/23 07:43:38;;;;;;;8.25;4.22;;;;;;;0.64;82.94;100755.69;6177235;28;20054;-75
2023/11/23 07:46:39;;;;;;;6.03;3.28;;;;;;;0.55;82.94;100756.59;6178102;28;20405;-76
2023/11/23 07:49:46;;;;;;;8.68;4.78;;;;;;;0.68;82.47;100738.50;6193303;28;20379;-76
2023/11/23 07:52:47;;;;;;;9.13;4.88;;;;;;;0.76;83.22;100745.28;6178342;28;20057;-73
2023/11/23 07:55:48;;;;;;;4.47;2.83;;;;;;;0.72;83.13;100735.03;6176707;28;20055;-73
2023/11/23 07:58:49;;;;;;;4.68;3.15;;;;;;;0.73;83.01;100735.03;6178136;28;20417;-76
2023/11/23 08:01:50;;;;;;;19.10;4.95;;;;;;;0.99;83.07;100744.22;6177908;28;20043;-76
2023/11/23 08:04:51;;;;;;;7.68;4.72;;;;;;;0.94;82.65;100733.09;6176633;28;20066;-76
2023/11/23 08:07:52;;;;;;;8.98;5.15;;;;;;;1.12;82.47;100717.47;6177776;28;20126;-76
2023/11/23 08:10:53;;;;;;;10.45;3.80;;;;;;;0.93;82.52;100714.28;6177839;28;20531;-76
2023/11/23 08:13:55;;;;;;;12.70;5.70;;;;;;;1.39;82.34;100703.44;6177551;28;20054;-76
2023/11/23 08:16:56;;;;;;;7.78;4.53;;;;;;;1.29;81.60;100698.44;6177544;28;20058;-73
2023/11/23 08:19:56;;;;;;;5.43;4.07;;;;;;;1.23;80.71;100701.09;6177515;28;20047;-72
2023/11/23 08:22:57;;;;;;;10.00;4.75;;;;;;;1.47;80.55;100694.78;6176390;28;20565;-72
2023/11/23 08:26:00;;;;;;;8.45;4.85;;;;;;;1.62;80.94;100692.00;6177519;28;20051;-73
2023/11/23 08:29:03;;;;;;;7.13;4.47;;;;;;;1.54;80.84;100676.66;6177737;28;20058;-75
2023/11/23 08:32:07;;;;;;;10.88;5.47;;;;;;;1.58;80.09;100678.31;6177485;28;20055;-76
2023/11/23 08:35:09;;;;;;;10.23;5.75;;;;;;;1.69;80.13;100672.16;6177421;28;20051;-76
2023/11/23 08:38:10;;;;;;;8.48;5.45;;;;;;;1.66;79.81;100661.94;6177030;28;20126;-76
2023/11/23 08:41:11;;;;;;;9.40;5.18;;;;;;;1.76;79.28;100658.34;6177275;28;20055;-76
2023/11/23 08:44:13;;;;;;;9.13;5.03;;;;;;;1.71;79.07;100666.16;6175740;28;20425;-73
2023/11/23 08:47:14;;;;;;;5.03;3.28;;;;;;;1.84;79.90;100673.69;6177132;28;20058;-76
2023/11/23 08:50:14;;;;;;;10.68;4.40;;;;;;;1.81;79.54;100670.28;6176872;28;20047;-72
2023/11/23 08:53:17;;;;;;;5.13;3.47;;;;;;;1.87;78.17;100661.59;6175654;28;20047;-75
2023/11/23 08:56:18;;;;;;;9.57;4.93;;;;;;;1.98;77.09;100661.44;6176751;28;20058;-75
2023/11/23 08:59:19;;;;;;;6.97;4.35;;;;;;;1.76;77.97;100653.22;6192277;28;20055;-75
2023/11/23 09:02:20;;;;;;;7.00;3.80;;;;;;;1.63;78.15;100654.25;6176524;28;20051;-75
2023/11/23 09:05:22;;;;;;;8.07;4.03;;;;;;;1.63;79.04;100664.53;6175426;28;20509;-75
2023/11/23 09:08:23;;;;;;;6.70;3.85;;;;;;;1.72;79.33;100657.53;6175313;28;20089;-73
2023/11/23 09:11:26;;;;;;;6.95;3.30;;;;;;;2.06;78.63;100640.72;6175328;28;20054;-72
2023/11/23 09:14:27;;;;;;;6.55;3.47;;;;;;;2.01;78.23;100639.06;6175104;28;20437;-76
2023/11/23 09:17:28;;;;;;;7.47;4.60;;;;;;;2.13;78.13;100642.31;6176421;28;20059;-72
2023/11/23 09:20:29;;;;;;;13.55;7.03;;;;;;;2.04;78.55;100640.75;6175371;28;20058;-72
2023/11/23 09:23:30;;;;;;;9.23;4.97;;;;;;;2.01;78.87;100621.03;6176183;28;20518;-71
2023/11/23 09:26:34;;;;;;;10.43;6.80;;;;;;;2.23;79.01;100618.13;6175978;28;20450;-72
2023/11/23 09:29:35;;;;;;;9.38;5.15;;;;;;;2.24;79.36;100612.06;6174721;28;20561;-75
2023/11/23 09:32:39;;;;;;;7.32;4.20;;;;;;;2.26;79.80;100620.63;6175751;28;20517;-75
2023/11/23 09:35:42;;;;;;;7.57;4.63;;;;;;;2.18;80.48;100623.34;6175856;28;20145;-74
2023/11/23 09:38:42;;;;;;;;;;;;;;;2.38;80.34;100635.03;6176523;28;20066;-72
2023/11/23 09:41:44;;;;;;;11.85;5.50;;;;;;;2.48;80.60;100625.41;6174615;28;20104;-75
2023/11/23 09:44:46;;;;;;;8.70;5.45;;;;;;;2.71;80.38;100625.81;6175739;28;20110;-75
2023/11/23 09:47:52;;;;;;;9.98;4.97;;;;;;;2.69;79.68;100603.53;6175403;28;20469;-75
2023/11/23 09:50:54;;;;;;;10.40;6.05;;;;;;;3.29;79.56;100581.63;6174333;28;20050;-75
2023/11/23 09:54:01;;;;;;;9.68;5.32;;;;;;;3.55;77.59;100586.22;6174195;28;20414;-76
2023/11/23 09:57:02;;;;;;;13.60;7.30;;;;;;;3.48;77.18;100582.06;6174078;28;20098;-72
2023/11/23 10:00:09;;;;;;;10.13;5.53;;;;;;;3.23;77.84;100587.78;6174188;28;20442;-72
2023/11/23 10:03:13;;;;;;;10.07;6.13;;;;;;;3.06;79.48;100587.31;6174794;28;20046;-75
2023/11/23 10:06:14;;;;;;;8.68;5.65;;;;;;;2.74;79.88;100593.97;6174417;28;20058;-73
2023/11/23 10:09:17;;;;;;;9.85;5.63;;;;;;;2.85;81.02;100594.63;6175288;28;20057;-75
2023/11/23 10:12:19;;;;;;;14.65;7.45;;;;;;;2.95;80.72;100574.66;6174046;28;20518;-75
2023/11/23 10:15:24;;;;;;;16.93;8.13;;;;;;;3.20;81.01;100569.81;6173855;28;20047;-75
2023/11/23 10:18:38;;;;;;;15.68;6.68;;;;;;;3.07;80.84;100558.06;6175601;28;20055;-76
2023/11/23 10:21:42;;;;;;;20.25;8.35;;;;;;;3.34;81.16;100567.75;6173859;28;20074;-75
2023/11/23 10:24:50;;;;;;;11.43;5.68;;;;;;;3.33;81.71;100557.47;6175138;28;20055;-76
2023/11/23 10:27:54;;;;;;;8.85;5.43;;;;;;;3.26;81.40;100541.28;6173167;28;20493;-73
2023/11/23 10:30:55;;;;;;;12.77;5.97;;;;;;;3.20;81.72;100539.69;6174854;28;20427;-73
2023/11/23 10:33:57;;;;;;;12.65;5.88;;;;;;;3.12;82.09;100563.97;6173382;28;20047;-73
2023/11/23 10:36:59;;;;;;;10.82;6.13;;;;;;;3.27;82.66;100570.50;6174675;28;20047;-72
2023/11/23 10:40:03;;;;;;;15.40;8.63;;;;;;;3.51;82.38;100567.38;6173433;28;20074;-72
2023/11/23 10:43:06;;;;;;;18.88;8.73;;;;;;;3.67;82.45;100562.69;6174559;28;20062;-71
2023/11/23 10:46:09;;;;;;;23.55;11.48;;;;;;;3.47;82.60;100570.91;6173279;28;20458;-74
2023/11/23 10:49:13;;;;;;;29.83;9.90;;;;;;;3.57;82.65;100553.47;6173003;28;20063;-76
2023/11/23 10:52:17;;;;;;;16.88;8.23;;;;;;;3.69;82.50;100537.69;6174330;28;20057;-72
2023/11/23 10:55:17;;;;;;;12.07;6.80;;;;;;;3.72;82.81;100529.84;6173134;28;20086;-71
2023/11/23 10:58:21;;;;;;;17.30;9.02;;;;;;;3.83;81.52;100516.69;6173140;28;20057;-73
2023/11/23 11:01:26;;;;;;;19.45;8.18;;;;;;;3.86;82.03;100506.28;6174138;28;20047;-73
2023/11/23 11:04:30;;;;;;;14.27;6.70;;;;;;;3.91;80.68;100501.84;6172867;28;20421;-73
2023/11/23 11:07:37;;;;;;;10.27;5.72;;;;;;;4.12;80.74;100502.16;6173901;28;20502;-75
2023/11/23 11:10:40;;;;;;;15.35;6.95;;;;;;;4.03;81.26;100501.50;6173020;28;20113;-72
2023/11/23 11:13:45;;;;;;;13.75;7.28;;;;;;;4.01;81.13;100499.84;6173663;28;20482;-76
2023/11/23 11:16:46;;;;;;;10.38;5.70;;;;;;;3.94;81.17;100491.44;6173677;28;20569;-72
2023/11/23 11:19:48;;;;;;;15.07;8.25;;;;;;;4.09;80.65;100477.25;6172576;28;20053;-73
2023/11/23 11:22:56;;;;;;;13.02;7.40;;;;;;;4.13;80.78;100463.38;6173666;28;20054;-74
2023/11/23 11:26:06;;;;;;;12.88;6.63;;;;;;;4.19;81.11;100449.44;6172495;28;20173;-73
2023/11/23 11:29:07;;;;;;;12.38;6.80;;;;;;;3.96;80.89;100445.75;6173820;28;20134;-73
2023/11/23 11:32:08;;;;;;;14.85;5.43;;;;;;;3.98;81.72;100438.81;6172425;28;20429;-73
2023/11/23 11:35:10;;;;;;;11.65;7.05;;;;;;;3.92;81.68;100440.72;6172324;28;20078;-76
2023/11/23 11:38:16;;;;;;;13.05;7.28;;;;;;;4.18;81.18;100427.94;6173709;28;20054;-76
2023/11/23 11:41:17;;;;;;;11.80;5.70;;;;;;;4.12;81.56;100424.66;6173531;28;20055;-73
2023/11/23 11:44:22;;;;;;;12.90;6.38;;;;;;;4.32;81.17;100427.53;6173754;28;20069;-76
2023/11/23 11:47:23;;;;;;;15.20;8.55;;;;;;;4.38;81.57;100427.34;6172087;28;20058;-76
2023/11/23 11:50:24;;;;;;;13.07;7.45;;;;;;;4.23;81.99;100415.72;6172336;28;20121;-73
2023/11/23 11:53:25;;;;;;;14.82;8.27;;;;;;;4.52;81.18;100408.84;6173427;28;20047;-75
2023/11/23 11:56:27;;;;;;;12.52;6.70;;;;;;;4.26;82.30;100419.09;6172446;28;20120;-73
2023/11/23 11:59:29;;;;;;;17.10;8.18;;;;;;;4.22;82.39;100421.81;6173239;28;20634;-73
2023/11/23 12:02:31;;;;;;;20.45;8.25;;;;;;;4.16;82.66;100429.72;6172387;28;20050;-76
2023/11/23 12:05:33;;;;;;;14.83;9.67;;;;;;;4.05;83.43;100421.41;6173295;28;20417;-73
2023/11/23 12:08:37;;;;;;;18.27;10.60;;;;;;;4.33;83.67;100408.56;6173316;28;20281;-72
2023/11/23 12:11:40;;;;;;;17.13;8.80;;;;;;;4.48;84.01;100402.09;6173118;28;20494;-76
2023/11/23 12:14:47;;;;;;;16.33;8.55;;;;;;;4.49;83.48;100393.44;6173165;28;20504;-76
2023/11/23 12:17:50;;;;;;;13.50;7.07;;;;;;;4.49;84.18;100385.69;6172034;28;20051;-76
2023/11/23 12:20:53;;;;;;;13.80;6.78;;;;;;;4.66;83.48;100390.34;6171983;28;20055;-76
2023/11/23 12:23:55;;;;;;;13.10;6.95;;;;;;;4.67;82.72;100384.25;6172112;28;20050;-76
2023/11/23 12:26:56;;;;;;;15.32;7.20;;;;;;;4.66;83.27;100389.50;6173461;28;20079;-76
2023/11/23 12:29:59;;;;;;;15.23;7.53;;;;;;;4.69;81.61;100376.47;6176455;28;20513;-76
2023/11/23 12:33:00;;;;;;;19.38;8.30;;;;;;;4.71;81.42;100369.50;6176145;28;20339;-73
2023/11/23 12:36:01;;;;;;;13.57;6.80;;;;;;;4.97;80.97;100363.50;6177333;28;20054;-73
2023/11/23 12:39:04;;;;;;;13.13;7.05;;;;;;;4.98;79.61;100360.88;6177281;28;20054;-73
2023/11/23 12:42:04;;;;;;;11.95;5.68;;;;;;;4.92;78.37;100339.53;6176082;28;20428;-76
2023/11/23 12:45:08;;;;;;;17.13;8.48;;;;;;;4.95;77.63;100331.69;6175955;28;20657;-76
2023/11/23 12:48:12;;;;;;;20.05;8.15;;;;;;;4.96;77.52;100328.19;6176963;28;20070;-72
2023/11/23 12:51:14;;;;;;;15.10;7.45;;;;;;;4.90;78.43;100325.81;6176009;28;20055;-72
2023/11/23 12:54:15;;;;;;;13.80;7.33;;;;;;;5.16;79.50;100332.69;6175866;28;20093;-72
2023/11/23 12:57:18;;;;;;;23.35;9.43;;;;;;;5.17;82.48;100324.88;6176961;28;20353;-75
2023/11/23 13:00:21;;;;;;;16.30;8.32;;;;;;;5.19;82.89;100323.09;6175665;28;20054;-73
2023/11/23 13:03:23;;;;;;;12.80;7.60;;;;;;;5.02;80.24;100309.88;6176912;28;20081;-73
2023/11/23 13:06:27;;;;;;;9.82;5.72;;;;;;;5.04;79.47;100310.66;6176851;28;20077;-76
2023/11/23 13:09:28;;;;;;;12.85;7.25;;;;;;;5.12;79.21;100284.53;6175582;28;20130;-75
2023/11/23 13:12:31;;;;;;;13.65;7.28;;;;;;;5.25;78.79;100286.66;6176535;28;20108;-73
2023/11/23 13:15:33;;;;;;;14.38;7.28;;;;;;;5.68;77.48;100276.47;6176777;28;20054;-72
2023/11/23 13:18:36;;;;;;;17.48;7.88;;;;;;;5.45;76.68;100270.41;6176245;28;20051;-74
2023/11/23 13:21:41;;;;;;;18.20;7.88;;;;;;;5.10;77.45;100265.66;6175392;28;20046;-74
2023/11/23 13:24:43;;;;;;;14.02;6.72;;;;;;;5.13;78.38;100276.75;6175072;28;20070;-73
2023/11/23 13:27:44;;;;;;;10.85;6.25;;;;;;;4.78;79.57;100278.78;6175142;28;20061;-73
2023/11/23 13:30:50;;;;;;;8.00;4.82;;;;;;;4.51;80.39;100277.97;6176216;28;20051;-75
2023/11/23 13:33:52;;;;;;;14.43;7.75;;;;;;;4.59;80.72;100265.63;6174646;28;20054;-76
2023/11/23 13:36:53;;;;;;;11.52;5.15;;;;;;;4.78;80.38;100272.78;6175058;28;20085;-73
2023/11/23 13:39:54;;;;;;;15.10;8.00;;;;;;;4.90;81.36;100277.53;6174681;28;20058;-73
2023/11/23 13:42:55;;;;;;;13.73;7.07;;;;;;;4.84;79.69;100268.25;6175951;28;20073;-73
2023/11/23 13:45:56;;;;;;;15.13;7.15;;;;;;;4.56;79.74;100273.47;6175712;28;20526;-77
2023/11/23 13:48:57;;;;;;;20.42;9.63;;;;;;;4.68;80.20;100258.47;6175561;28;20058;-76
2023/11/23 13:52:02;;;;;;;22.92;10.43;;;;;;;4.66;80.35;100262.84;6175676;28;20130;-77
2023/11/23 13:55:08;;;;;;;26.65;12.88;;;;;;;4.61;81.10;100261.25;6175838;28;20062;-73
2023/11/23 13:58:12;;;;;;;25.10;11.98;;;;;;;4.50;81.99;100252.16;6174426;28;20486;-73
2023/11/23 14:01:16;;;;;;;25.10;9.82;;;;;;;4.70;82.18;100260.09;6175627;28;20062;-72
2023/11/23 14:04:17;;;;;;;19.23;9.10;;;;;;;4.77;82.17;100251.22;6175444;28;20047;-72
2023/11/23 14:07:18;;;;;;;12.00;6.32;;;;;;;4.65;82.30;100246.47;6175257;28;20430;-73